This is the latest recevied weather packets stored in our database for station/object 9W2YIE-13. If no packets are shown the sender has not sent any weather packets the latest 10 day(s).
| Time | Temp. | Humidity | Pressure | Rain* | Wind** | Luminosity | Snow |
|---|---|---|---|---|---|---|---|
| 1787732641 | 50.56° C | 23% | 1005 hPa | - | - | 0 W/m² | - |
| 1787731715 | 46.67° C | 31% | 1005 hPa | - | - | 0 W/m² | - |
| 1787730787 | 45.56° C | 32% | 1005 hPa | - | - | 0 W/m² | - |
| 1787729862 | 47.22° C | 27% | 1005 hPa | - | - | 0 W/m² | - |
| 1787728924 | 47.78° C | 28% | 1005 hPa | - | - | 0 W/m² | - |
| 1787727994 | 45.56° C | 29% | 1006 hPa | - | - | 0 W/m² | - |
| 1787727069 | 45.56° C | 31% | 1006 hPa | - | - | 0 W/m² | - |
| 1787726249 | 50° C | 24% | 1006 hPa | - | - | 0 W/m² | - |
| 1787725309 | 49.44° C | 24% | 1006 hPa | - | - | 0 W/m² | - |
| 1787724383 | 50° C | 25% | 1007 hPa | - | - | 0 W/m² | - |
| 1787723456 | 49.44° C | 25% | 1007 hPa | - | - | 0 W/m² | - |
| 1787722518 | 47.22° C | 27% | 1007 hPa | - | - | 0 W/m² | - |
| 1787721487 | 46.11° C | 29% | 1008 hPa | - | - | 0 W/m² | - |
| 1787720560 | 46.11° C | 30% | 1008 hPa | - | - | 0 W/m² | - |
| 1787719633 | 45° C | 31% | 1008 hPa | - | - | 0 W/m² | - |
| 1787719007 | 45.56° C | 30% | 1008 hPa | - | - | 0 W/m² | - |
| 1787718076 | 45° C | 31% | 1008 hPa | - | - | 0 W/m² | - |
| 1787717144 | 45° C | 32% | 1008 hPa | - | - | 0 W/m² | - |
| 1787716212 | 43.89° C | 34% | 1009 hPa | - | - | 0 W/m² | - |
| 1787715280 | 43.89° C | 33% | 1009 hPa | - | - | 0 W/m² | - |
| 1787714320 | 43.33° C | 35% | 1009 hPa | - | - | 0 W/m² | - |
| 1787713651 | 43.33° C | 34% | 1009 hPa | - | - | 0 W/m² | - |
| 1787712694 | 42.22° C | 35% | 1009 hPa | - | - | 0 W/m² | - |
| 1787711364 | 40° C | 39% | 1009 hPa | - | - | 0 W/m² | - |
| 1787710429 | 40.56° C | 38% | 1009 hPa | - | - | 0 W/m² | - |
* Rain since midnight (hover to see other rain measurements)
** Current wind speed in m/s (hover to see current wind gust speed)